Aérodrome :







RETROUVEZ-NOUS SUR...

 
LOGIN :

S'inscrire | Disclaimer

   EN    FR    IT 

 









Légende :    VFR   VFR Marginal   IFR   IFR Intensif   IFR Très Intensif
Visi : 
Plafond : 
>= 8 km
>= 3000ft
5 à 8 km
1000 à 3000 ft
1500m à 5 km
500 à 1000 ft
800 à 1500m
200 à 500 ft
< 800m
< 200 ft
Symboles :   Orages  Brouillard  Fortes neiges  Fortes précipitations  Vent > 20 kt






- Altitude de l'aérodrome : 166 ft
- Code IATA : YCX


CYCX - Gagetown Heliport

DERNIER METAR :
  • 261700Z 04005KT 010V100 15SM FEW090 SCT210 06/M05 A3006 RMK AC2CI2 DA-974FT SLP180

METARs EXPIRÉS :
  • 261600Z 03004KT 340V070 15SM FEW090 SCT210 05/M05 A3006 RMK AC2CI2 DA-1106FT SLP183
  • 261500Z 03003KT 010V070 15SM FEW090 SCT210 03/M05 A3007 RMK AC2CI2 DA-1344FT SLP185

TAF TAF CYCX
Valide du 26 à 12h jusqu'au 27 à 00h UTC


261130Z 2612/2624 VRB03KT P6SM FEW090 FEW210
TEMPO 2612/2616 SCT030 BKN060
FM261600 02005KT P6SM SCT080
FM262300 05005KT P6SM FEW025 BKN080
BECMG 2623/2624 05008G18KT RMK NXT FCST BY 261800Z



MET'MAP, la Météo Aéronautique d'un coup d'oeil ! - Copyright ORBIFLY Décembre 2007 - Disclaimer

ORBIFLY MET'MAP TEAM :

Programmation & Développement : Alexandra Zaïnal
Sur une idée originale de : Baudouin d'Aumeries
Assistance à la programmation : Marc-Olivier Méhu
Soutien technique & logistique : Manuel Goepfert

Contact : metmap@orbifly.com




SOURCES & CREDITS :

   NOAA